CheckWX is a tool to help pilots better visualize weather data.  It is not intended as a substitute for an official pre-flight weather briefing.

16:31:32 UTC

KQEY METAR
Geumsan Rws
Geumsan Rws, South Korea
Current

12 mins ago

KQEY 221620Z AUTO 12003KT 9999 FEW024 BKN037 25/24 A2949 RMK A02 TSNO
Observed
Jul-22 @ 16:20 UTC
Wind
  • 120° at 3 KTS
Visibility
10,000+ meters
Flight Rules
VFR
Cloud Levels
  • Few at 2,400' AGL
  • Broken at 3,700' AGL
Temperature
25°C / 77°F
Dewpoint
24°C / 75°F
Humidity
94%
Altimeter
29.49" Hg
Pressure
998.62 hPa
Previous

22 mins ago

KQEY 221610Z AUTO 06001KT 9999 BKN025 26/24 A2949 RMK A02 TSNO
Observed
Jul-22 @ 16:10 UTC
Wind
  • 060° at 1 KTS
Visibility
10,000+ meters
Flight Rules
MVFR
Cloud Levels
  • Broken at 2,500' AGL
Temperature
26°C / 79°F
Dewpoint
24°C / 75°F
Humidity
89%
Altimeter
29.49" Hg
Pressure
998.62 hPa
Previous

32 mins ago

KQEY 221600Z AUTO 03002KT 9999 BKN025 25/24 A2949 RMK A02 TSNO
Observed
Jul-22 @ 16:00 UTC
Wind
  • 030° at 2 KTS
Visibility
10,000+ meters
Flight Rules
MVFR
Cloud Levels
  • Broken at 2,500' AGL
Temperature
25°C / 77°F
Dewpoint
24°C / 75°F
Humidity
94%
Altimeter
29.49" Hg
Pressure
998.62 hPa